Latest Weather Observations for Bulman

IDD60801

Issued at 3:31 pm CST Wednesday 22 February 2017 (issued every 30 minutes, with the page automatically refreshed every 10 minutes)

About weather observations | Map of weather stations | Latest weather observations for NT | Other Formats
Station Details ID: 014627 Name: BULMAN Lat: -13.67 Lon: 134.34 Height: 103.4 m
Data from the previous 72 hours. | See also: Recent months at Bulman
Date/Time
CST
Temp
°C
App
Temp
°C
Dew
Point
°C
Rel
Hum
%
Delta-T
°C
Wind Press
QNH
hPa
Press
MSL
hPa
Rain since
9am
mm
Dir  Spd
km/h
Gust
km/h
Spd
kts
Gust
kts
22/03:00pm 35.0 34.8 16.8 34 11.7 S 13 20 7 11 1007.6 1006.8 0.0
22/02:30pm 35.0 36.0 17.7 36 11.2 SSW 9 17 5 9 1007.9 1007.1 0.0
22/02:00pm 35.1 35.2 16.4 32 11.9 S 11 24 6 13 1008.3 1007.5 0.0
22/01:30pm 34.9 35.5 17.6 35 11.2 SSW 11 24 6 13 1008.6 1007.8 0.0
22/01:00pm 34.3 34.4 16.6 34 11.3 WSW 11 22 6 12 1009.0 1008.2 0.0
22/12:30pm 33.9 33.9 17.2 37 10.7 W 13 20 7 11 1009.5 1008.7 0.0
22/12:00pm 33.5 33.7 16.8 36 10.7 SW 11 19 6 10 1009.9 1009.1 0.0
22/11:30am 33.2 34.6 18.6 42 9.6 SSW 9 19 5 10 1010.2 1009.4 0.0
22/11:00am 33.0 35.2 19.5 45 8.9 SW 7 13 4 7 1010.5 1009.7 0.0
22/10:30am 31.9 33.9 19.9 49 8.0 S 9 13 5 7 1010.8 1010.0 0.0
22/10:00am 31.7 33.8 19.3 47 8.1 SSW 7 13 4 7 1011.0 1010.2 0.0
22/09:30am 31.2 35.1 21.1 55 6.8 S 2 9 1 5 1011.2 1010.4 0.0
22/09:00am 29.9 33.7 21.6 61 5.6 SSW 4 9 2 5 1011.3 1010.5 0.0
22/08:30am 27.7 32.9 22.9 75 3.3 CALM 0 0 0 0 1011.2 1010.4 0.0
22/08:00am 25.9 31.1 22.8 83 2.1 CALM 0 0 0 0 1010.9 1010.1 0.0
22/07:30am 23.7 28.6 22.3 92 0.9 CALM 0 6 0 3 1010.6 1009.8 0.0
22/07:00am 22.6 27.3 21.9 96 0.5 CALM 0 0 0 0 1010.2 1009.4 0.0
22/06:30am 22.4 26.9 21.6 95 0.5 CALM 0 0 0 0 1010.1 1009.3 0.0
22/06:00am 22.5 27.1 21.7 95 0.5 CALM 0 0 0 0 1009.8 1009.0 0.0
22/05:30am 22.7 27.4 21.9 95 0.5 CALM 0 0 0 0 1009.6 1008.8 0.0
22/05:00am 23.0 27.9 22.3 96 0.5 CALM 0 0 0 0 1009.4 1008.6 0.0
22/04:30am 22.8 27.5 22.0 95 0.5 CALM 0 0 0 0 1009.1 1008.3 0.0
22/04:00am 23.0 26.7 22.2 95 0.5 NNE 6 7 3 4 1008.8 1008.0 0.0
22/03:30am 23.0 26.7 22.3 96 0.5 N 6 7 3 4 1008.7 1007.9 0.0
22/03:00am 23.1 28.0 22.3 95 0.5 CALM 0 6 0 3 1008.8 1008.0 0.0
22/02:30am 23.4 28.3 22.4 94 0.7 CALM 0 0 0 0 1008.8 1008.0 0.0
22/02:00am 23.5 28.5 22.5 94 0.7 CALM 0 0 0 0 1008.9 1008.1 0.0
22/01:30am 23.8 29.0 22.8 94 0.7 CALM 0 0 0 0 1009.1 1008.3 0.0
22/01:00am 24.1 29.3 22.9 93 0.8 CALM 0 0 0 0 1009.1 1008.3 0.0
22/12:30am 24.3 29.6 23.1 93 0.8 CALM 0 6 0 3 1009.4 1008.6 0.0
22/12:00am 24.3 29.2 23.1 93 0.8 SW 2 7 1 4 1009.8 1009.0 0.0
 
Date/Time
CST
Temp
°C
App
Temp
°C
Dew
Point
°C
Rel
Hum
%
Delta-T
°C
Wind Press
QNH
hPa
Press
MSL
hPa
Rain since
9am
mm
Dir  Spd
km/h
Gust
km/h
Spd
kts
Gust
kts
21/11:30pm 24.5 29.7 22.9 91 1.1 CALM 0 0 0 0 1010.1 1009.3 0.0
21/11:00pm 25.1 30.8 23.7 92 1.0 CALM 0 0 0 0 1010.3 1009.5 0.0
21/10:30pm 25.3 30.2 23.7 91 1.1 SW 4 6 2 3 1010.2 1009.4 0.0
21/10:00pm 25.5 30.0 23.7 90 1.2 SW 6 7 3 4 1010.0 1009.2 0.0
21/09:30pm 25.8 30.3 23.7 88 1.4 SSW 6 6 3 3 1009.8 1009.0 0.0
21/09:00pm 26.2 31.9 23.7 86 1.7 CALM 0 0 0 0 1009.7 1008.9 0.0
21/08:30pm 27.2 32.9 23.7 81 2.4 CALM 0 0 0 0 1009.7 1008.9 0.0
21/08:00pm 28.4 33.6 23.5 75 3.4 S 2 6 1 3 1009.5 1008.7 0.0
21/07:30pm 29.6 33.1 21.8 63 5.3 SSE 6 7 3 4 1009.3 1008.5 0.0
21/07:00pm 30.8 33.0 20.4 54 6.9 S 9 13 5 7 1009.0 1008.2 0.0
21/06:30pm 31.8 33.9 19.4 47 8.2 SSW 7 11 4 6 1008.6 1007.8 0.0
21/06:00pm 33.0 34.6 19.1 43 9.2 SSW 9 17 5 9 1008.2 1007.4 0.0
21/05:30pm 33.4 35.7 19.8 44 9.1 SSW 7 13 4 7 1008.0 1007.2 0.0
21/05:00pm 33.2 34.5 19.3 44 9.2 SSW 11 19 6 10 1007.7 1006.9 0.0
21/04:30pm 33.2 34.7 19.7 45 9.0 SSW 11 20 6 11 1007.5 1006.7 0.0
21/04:00pm 33.3 33.8 18.3 41 9.8 SW 13 20 7 11 1007.5 1006.7 0.0
21/03:30pm 32.6 34.2 19.1 44 8.9 SW 9 17 5 9 1007.8 1007.0 0.0
21/03:00pm 33.1 34.0 18.5 42 9.5 SSW 11 20 6 11 1008.0 1007.2 0.0
21/02:30pm 33.4 33.4 17.1 37 10.5 W 13 20 7 11 1008.3 1007.5 0.0
21/02:00pm 33.2 33.8 17.8 40 10.0 WSW 11 17 6 9 1008.6 1007.8 0.0
21/01:30pm 32.8 33.2 18.9 43 9.1 SW 15 28 8 15 1008.9 1008.1 0.0
21/01:00pm 32.4 33.2 18.2 42 9.2 WSW 11 24 6 13 1009.5 1008.7 0.0
21/12:30pm 31.9 32.0 17.4 42 9.3 WSW 13 24 7 13 1010.1 1009.3 0.0
21/12:00pm 31.6 31.4 16.7 40 9.4 WSW 13 22 7 12 1010.5 1009.7 0.0
21/11:30am 31.1 30.7 15.1 38 9.9 WSW 11 20 6 11 1010.7 1009.9 0.0
21/11:00am 30.6 31.1 18.3 47 7.9 WSW 13 24 7 13 1011.0 1010.2 0.0
21/10:30am 30.2 31.1 18.3 49 7.7 SW 11 22 6 12 1011.1 1010.3 0.0
21/10:00am 29.5 29.8 18.0 50 7.4 SW 13 20 7 11 1011.4 1010.6 0.0
21/09:30am 29.0 29.5 17.5 49 7.3 S 11 17 6 9 1011.3 1010.5 0.0
21/09:00am 28.0 29.4 18.7 57 6.0 SW 9 15 5 8 1011.2 1010.4 0.0
21/08:30am 27.1 29.1 19.2 62 5.1 WSW 7 15 4 8 1011.0 1010.2 0.0
21/08:00am 25.7 30.3 21.8 79 2.6 CALM 0 0 0 0 1010.7 1009.9 0.0
21/07:30am 22.7 26.9 21.0 90 1.1 CALM 0 0 0 0 1010.4 1009.6 0.0
21/07:00am 22.6 26.7 20.7 89 1.2 CALM 0 0 0 0 1010.0 1009.2 0.0
21/06:30am 23.1 25.8 20.2 84 1.9 SSW 6 9 3 5 1009.5 1008.7 0.0
21/06:00am 22.6 25.6 20.9 90 1.1 SW 6 9 3 5 1009.1 1008.3 0.0
21/05:30am 22.8 25.9 21.1 90 1.1 SW 6 7 3 4 1008.9 1008.1 0.0
21/05:00am 22.3 26.3 21.3 94 0.7 SW 2 7 1 4 1008.8 1008.0 0.0
21/04:30am 22.4 25.5 21.4 94 0.7 WSW 7 9 4 5 1008.4 1007.6 0.0
21/04:00am 22.5 27.1 21.7 95 0.5 CALM 0 4 0 2 1008.4 1007.6 0.0
21/03:30am 22.7 27.4 21.9 95 0.5 CALM 0 0 0 0 1008.4 1007.6 0.0
21/03:00am 22.9 27.7 22.1 95 0.5 CALM 0 0 0 0 1008.5 1007.7 0.0
21/02:30am 23.0 27.7 22.0 94 0.7 CALM 0 0 0 0 1008.6 1007.8 0.0
21/02:00am 23.3 28.2 22.3 94 0.7 CALM 0 0 0 0 1008.8 1008.0 0.0
21/01:30am 23.4 28.1 22.0 92 0.9 CALM 0 0 0 0 1009.0 1008.2 0.0
21/01:00am 23.8 28.6 22.1 90 1.1 CALM 0 0 0 0 1009.2 1008.4 0.0
21/12:30am 24.4 29.1 21.9 86 1.7 CALM 0 2 0 1 1009.4 1008.6 0.0
21/12:00am 24.5 28.1 22.0 86 1.7 SSW 6 9 3 5 1009.7 1008.9 0.0
 
Date/Time
CST
Temp
°C
App
Temp
°C
Dew
Point
°C
Rel
Hum
%
Delta-T
°C
Wind Press
QNH
hPa
Press
MSL
hPa
Rain since
9am
mm
Dir  Spd
km/h
Gust
km/h
Spd
kts
Gust
kts
20/11:30pm 24.5 29.7 22.8 90 1.2 CALM 0 0 0 0 1010.2 1009.4 0.0
20/11:00pm 24.9 30.2 23.1 90 1.2 CALM 0 0 0 0 1010.2 1009.4 0.0
20/10:30pm 25.3 30.7 23.2 88 1.4 CALM 0 0 0 0 1010.3 1009.5 0.0
20/10:00pm 25.5 29.5 22.8 85 1.8 S 6 9 3 5 1010.2 1009.4 0.0
20/09:30pm 25.4 31.1 23.8 91 1.1 CALM 0 0 0 0 1009.8 1009.0 0.0
20/09:00pm 25.1 30.3 23.5 91 1.1 S 2 7 1 4 1009.8 1009.0 0.0
20/08:30pm 25.3 31.0 23.7 91 1.1 CALM 0 0 0 0 1009.7 1008.9 0.0
20/08:00pm 25.5 31.1 23.6 89 1.3 CALM 0 0 0 0 1009.2 1008.4 0.0
20/07:30pm 26.1 31.6 23.4 85 1.9 CALM 0 0 0 0 1009.0 1008.2 0.0
20/07:00pm 26.5 30.7 23.2 82 2.3 SSE 6 7 3 4 1008.7 1007.9 0.0
20/06:30pm 26.9 31.1 23.2 80 2.5 SE 6 9 3 5 1008.4 1007.6 0.0
20/06:00pm 26.9 30.2 22.5 77 3.0 SE 9 15 5 8 1007.9 1007.1 0.0
20/05:30pm 27.5 30.1 22.0 72 3.7 SE 11 19 6 10 1007.6 1006.8 0.0
20/05:00pm 28.5 31.3 22.3 69 4.2 SE 11 15 6 8 1007.0 1006.2 0.0
20/04:30pm 28.0 30.7 22.2 70 3.9 SE 11 17 6 9 1006.8 1006.0 0.0
20/04:00pm 30.2 33.5 21.8 60 5.7 S 7 15 4 8 1006.7 1005.9 0.0
20/03:30pm 30.2 33.8 22.1 62 5.5 SSW 6 13 3 7 1006.6 1005.8 0.0
20/03:00pm 30.3 32.8 21.1 58 6.2 S 9 17 5 9 1006.6 1005.8 0.0
20/02:30pm 29.8 32.7 21.7 61 5.5 SSE 9 15 5 8 1006.8 1006.0 0.0
20/02:00pm 29.4 30.7 20.8 60 5.7 SSE 15 20 8 11 1007.2 1006.4 0.0
20/01:30pm 29.5 32.6 22.2 65 5.0 SSW 9 15 5 8 1007.3 1006.5 0.0
20/01:00pm 29.6 32.9 21.8 63 5.3 SW 7 11 4 6 1007.7 1006.9 0.0
20/12:30pm 29.5 32.1 21.2 61 5.6 S 9 15 5 8 1008.0 1007.2 0.0
20/12:00pm 29.2 32.1 21.7 64 5.1 SW 9 17 5 9 1008.4 1007.6 0.0
20/11:30am 28.9 31.0 21.7 65 4.9 S 13 19 7 10 1008.5 1007.7 0.0
20/11:00am 28.5 30.1 20.8 63 5.1 S 13 24 7 13 1008.8 1008.0 0.0
20/10:30am 29.2 31.8 21.2 62 5.4 SSW 9 17 5 9 1008.6 1007.8 0.0
20/10:00am 28.2 30.0 21.2 65 4.7 SSW 13 20 7 11 1008.2 1007.4 0.0
20/09:30am 28.1 29.7 21.4 67 4.5 SW 15 30 8 16 1008.4 1007.6 0.0
20/09:00am 27.4 29.2 21.2 69 4.1 SW 13 20 7 11 1008.2 1007.4 10.6
20/08:30am 26.6 29.5 21.8 75 3.2 WSW 9 15 5 8 1007.9 1007.1 10.6
20/08:00am 25.2 28.4 22.3 84 2.0 SW 9 15 5 8 1007.6 1006.8 10.6
20/07:30am 24.3 26.9 22.0 87 1.5 SW 11 17 6 9 1007.2 1006.4 10.6
20/07:00am 24.1 27.0 21.8 87 1.5 WSW 9 15 5 8 1007.0 1006.2 10.6
20/06:30am 23.7 27.1 21.6 88 1.4 SW 6 11 3 6 1006.9 1006.1 10.6
20/06:00am 23.7 26.8 21.4 87 1.5 SW 7 15 4 8 1006.9 1006.1 10.6
20/05:30am 23.5 26.8 21.4 88 1.4 SW 6 11 3 6 1006.5 1005.7 10.6
20/05:00am 23.3 26.6 21.4 89 1.3 SW 6 9 3 5 1005.9 1005.2 10.6
20/04:30am 23.4 26.5 21.5 89 1.3 SW 7 11 4 6 1005.7 1005.0 10.6
20/04:00am 23.5 26.8 21.8 90 1.1 SW 7 11 4 6 1005.6 1004.9 10.6
20/03:30am 23.7 26.9 21.6 88 1.4 SSW 7 13 4 7 1005.9 1005.2 10.6
20/03:00am 23.9 26.8 21.8 88 1.4 SSW 9 15 5 8 1006.4 1005.6 10.6
20/02:30am 24.0 27.1 22.1 89 1.3 SSW 9 15 5 8 1006.8 1006.0 10.6
20/02:00am 23.9 27.5 22.3 91 1.1 SSW 7 13 4 7 1007.5 1006.7 10.6
20/01:30am 23.9 27.0 22.2 90 1.1 SSW 9 17 5 9 1007.7 1006.9 10.6
20/01:00am 23.7 26.8 22.1 91 1.1 SSW 9 15 5 8 1007.6 1006.8 10.6
20/12:30am 23.8 26.5 22.2 91 1.1 SSW 11 19 6 10 1007.6 1006.8 10.6
20/12:00am 24.1 27.1 22.7 92 0.9 S 11 22 6 12 1007.7 1006.9 10.6
 
Date/Time
CST
Temp
°C
App
Temp
°C
Dew
Point
°C
Rel
Hum
%
Delta-T
°C
Wind Press
QNH
hPa
Press
MSL
hPa
Rain since
9am
mm
Dir  Spd
km/h
Gust
km/h
Spd
kts
Gust
kts
19/11:30pm 24.4 27.6 23.0 92 1.0 SSW 11 17 6 9 1008.0 1007.2 10.6
19/11:00pm 24.2 28.1 23.0 93 0.8 SSW 7 11 4 6 1007.9 1007.1 10.6
19/10:30pm 24.2 28.0 22.8 92 0.9 SW 7 13 4 7 1008.0 1007.2 10.6
19/10:00pm 24.1 28.4 22.7 92 0.9 S 4 7 2 4 1008.0 1007.2 10.6
19/09:30pm 23.9 28.2 22.7 93 0.8 SW 4 7 2 4 1007.9 1007.1 10.6
19/09:00pm 24.0 28.0 22.8 93 0.8 WSW 6 9 3 5 1007.8 1007.0 10.6
19/08:30pm 24.2 28.1 23.0 93 0.8 WSW 7 9 4 5 1007.8 1007.0 10.6
19/08:00pm 24.3 28.6 23.3 94 0.7 WSW 6 9 3 5 1007.8 1007.0 10.6
19/07:30pm 24.2 29.2 23.2 94 0.7 SSW 2 6 1 3 1007.4 1006.6 10.6
19/07:00pm 24.2 28.4 23.2 94 0.7 W 6 11 3 6 1007.0 1006.2 10.6
19/06:30pm 24.0 28.2 23.1 95 0.6 SSW 6 11 3 6 1006.4 1005.6 10.6
19/06:00pm 23.8 27.7 23.0 95 0.5 SSW 7 13 4 7 1005.8 1005.1 10.6
19/05:30pm 23.8 27.7 23.0 95 0.5 SSW 7 11 4 6 1005.6 1004.9 10.2
19/05:00pm 24.1 27.3 23.1 94 0.7 SSW 11 22 6 12 1005.5 1004.8 8.6
19/04:30pm 24.0 26.3 22.8 93 0.8 S 15 26 8 14 1005.3 1004.6 8.4
19/04:00pm 26.9 30.7 23.4 81 2.4 SE 9 17 5 9 1004.9 1004.2 6.2

Other Formats:

Comma delimited format used in spreadsheet applications
http://www.bom.gov.au/fwo/IDD60801/IDD60801.94143.axf

JavaScript Object Notation format (JSON) in row-major order
http://www.bom.gov.au/fwo/IDD60801/IDD60801.94143.json